createdAt,value
2018-08-28T00:00:39.829Z,2.95
2018-08-28T00:03:10.810Z,2.50
2018-08-28T00:05:40.170Z,2.60
2018-08-28T00:08:09.165Z,3.02
2018-08-28T00:10:37.994Z,3.10
2018-08-28T00:13:08.642Z,2.30
2018-08-28T00:15:37.933Z,3.05
2018-08-28T00:18:07.244Z,2.95
2018-08-28T00:27:36.927Z,2.75
2018-08-28T00:30:05.960Z,3.33
2018-08-28T00:32:34.565Z,2.75
2018-08-28T00:35:03.498Z,2.52
2018-08-28T00:37:32.669Z,2.15
2018-08-28T00:40:01.420Z,2.72
2018-08-28T00:42:31.657Z,2.95
2018-08-28T00:45:01.087Z,3.20
2018-08-28T00:47:30.360Z,3.30
2018-08-28T00:49:59.029Z,2.90
2018-08-28T00:52:29.699Z,2.83
2018-08-28T00:54:58.534Z,3.00
2018-08-28T00:57:27.729Z,3.12
2018-08-28T00:59:57.730Z,3.15
2018-08-28T01:02:26.619Z,3.47
2018-08-28T01:04:55.595Z,2.65
2018-08-28T01:07:24.558Z,2.77
2018-08-28T01:09:54.275Z,2.77
2018-08-28T01:12:22.907Z,2.80
2018-08-28T01:14:53.358Z,3.15
2018-08-28T01:17:23.461Z,3.40
2018-08-28T01:19:52.785Z,2.80
2018-08-28T01:22:22.091Z,2.65
2018-08-28T01:24:51.378Z,3.20
2018-08-28T01:27:20.672Z,3.47
2018-08-28T01:29:50.177Z,2.90
2018-08-28T01:32:19.511Z,2.72
2018-08-28T01:34:48.500Z,2.80
2018-08-28T01:37:17.141Z,3.05
2018-08-28T01:39:45.850Z,2.80
2018-08-28T01:42:18.863Z,2.90
2018-08-28T01:44:48.564Z,2.83
2018-08-28T01:47:17.511Z,3.10
2018-08-28T01:49:46.695Z,2.92
2018-08-28T01:52:18.632Z,2.77
2018-08-28T01:54:47.901Z,2.85
2018-08-28T01:57:19.669Z,3.37
2018-08-28T01:59:50.269Z,2.95
2018-08-28T02:02:21.479Z,2.80
2018-08-28T02:04:53.089Z,3.42
2018-08-28T02:07:23.530Z,2.92
2018-08-28T02:09:55.646Z,2.80
2018-08-28T02:12:26.253Z,3.12
2018-08-28T02:15:03.063Z,2.90
2018-08-28T02:17:31.770Z,3.37
2018-08-28T02:20:01.310Z,3.95
2018-08-28T02:22:31.588Z,2.90
2018-08-28T02:25:00.629Z,2.95
2018-08-28T02:27:29.975Z,2.95
2018-08-28T02:30:00.033Z,3.02
2018-08-28T02:32:29.595Z,3.25
2018-08-28T02:34:59.930Z,3.30
2018-08-28T02:37:28.702Z,3.62
2018-08-28T02:39:57.492Z,3.10
2018-08-28T02:42:26.820Z,2.83
2018-08-28T02:44:57.721Z,2.92
2018-08-28T02:47:29.181Z,3.05
2018-08-28T02:49:58.075Z,3.77
2018-08-28T02:52:27.220Z,3.08
2018-08-28T02:54:57.088Z,3.80
2018-08-28T02:57:26.400Z,3.55
2018-08-28T02:59:55.769Z,2.67
2018-08-28T03:02:26.411Z,3.00
2018-08-28T03:04:57.912Z,3.10
2018-08-28T03:07:28.350Z,3.25
2018-08-28T03:09:59.754Z,3.10
2018-08-28T03:12:30.129Z,2.90
2018-08-28T03:14:59.369Z,3.20
2018-08-28T03:17:28.269Z,3.17
2018-08-28T03:19:58.738Z,3.33
2018-08-28T03:22:29.866Z,3.45
2018-08-28T03:25:00.199Z,3.27
2018-08-28T03:27:30.719Z,3.33
2018-08-28T03:30:01.924Z,2.90
2018-08-28T03:32:31.110Z,3.30
2018-08-28T03:35:01.234Z,3.35
2018-08-28T03:37:30.801Z,3.60
2018-08-28T03:39:59.280Z,3.27
2018-08-28T03:42:27.736Z,3.58
2018-08-28T03:44:56.176Z,3.20
2018-08-28T03:47:24.965Z,3.12
2018-08-28T03:49:54.028Z,3.30
2018-08-28T03:52:22.509Z,3.80
2018-08-28T03:54:51.136Z,3.22
2018-08-28T03:57:19.896Z,3.60
2018-08-28T03:59:48.397Z,4.28
2018-08-28T04:02:17.217Z,3.52
2018-08-28T04:04:45.693Z,3.37
2018-08-28T04:07:14.448Z,4.25
2018-08-28T04:09:42.901Z,3.98
2018-08-28T04:13:14.802Z,3.70
2018-08-28T04:15:44.025Z,3.90
2018-08-28T04:18:13.181Z,3.95
2018-08-28T04:20:41.923Z,3.10
2018-08-28T04:23:10.721Z,3.70
2018-08-28T04:25:39.511Z,3.85
2018-08-28T04:28:07.981Z,4.50
2018-08-28T04:30:36.502Z,4.03
2018-08-28T04:33:05.557Z,4.85
2018-08-28T04:35:34.370Z,3.70
2018-08-28T04:38:03.165Z,3.30
2018-08-28T04:40:31.931Z,3.92
2018-08-28T04:43:00.344Z,4.10
2018-08-28T04:45:29.010Z,4.03
2018-08-28T04:47:57.766Z,3.37
2018-08-28T04:50:26.213Z,4.70
2018-08-28T04:52:54.679Z,4.00
2018-08-28T04:55:23.154Z,4.20
2018-08-28T04:57:52.373Z,3.72
2018-08-28T05:00:28.045Z,4.50
2018-08-28T05:02:57.536Z,4.40
2018-08-28T05:05:26.388Z,4.55
2018-08-28T05:08:05.143Z,5.65
2018-08-28T05:10:43.341Z,5.12
2018-08-28T05:13:12.594Z,6.40
2018-08-28T05:15:43.944Z,5.70
2018-08-28T05:18:12.782Z,5.15
2018-08-28T05:20:42.491Z,5.05
2018-08-28T05:23:11.280Z,5.55
2018-08-28T05:25:40.045Z,5.70
2018-08-28T05:28:08.812Z,6.37
2018-08-28T05:30:37.388Z,6.42
2018-08-28T05:33:06.245Z,6.05
2018-08-28T05:35:35.038Z,6.40
2018-08-28T05:38:04.588Z,6.50
2018-08-28T05:40:33.466Z,7.03
2018-08-28T05:43:01.924Z,7.60
2018-08-28T05:45:30.356Z,6.75
2018-08-28T05:47:58.814Z,7.05
2018-08-28T05:50:27.277Z,6.80
2018-08-28T05:52:56.129Z,7.25
2018-08-28T05:55:24.928Z,7.53
2018-08-28T05:57:53.762Z,7.72
2018-08-28T06:00:23.123Z,7.62
2018-08-28T06:02:56.339Z,6.20
2018-08-28T06:05:25.990Z,7.03
2018-08-28T06:07:55.158Z,8.03
2018-08-28T06:10:24.057Z,6.47
2018-08-28T06:12:53.224Z,6.08
2018-08-28T06:15:21.726Z,7.30
2018-08-28T06:17:50.591Z,6.80
2018-08-28T06:20:19.034Z,5.40
2018-08-28T06:22:47.825Z,5.72
2018-08-28T06:25:17.952Z,6.20
2018-08-28T06:27:46.546Z,5.87
2018-08-28T06:30:15.355Z,6.05
2018-08-28T06:32:43.801Z,6.60
2018-08-28T06:35:12.581Z,5.80
2018-08-28T06:52:57.929Z,6.05
2018-08-28T06:55:27.054Z,4.90
2018-08-28T06:57:55.484Z,5.75
2018-08-28T07:00:25.196Z,5.20
2018-08-28T07:02:53.981Z,5.30
2018-08-28T07:05:22.780Z,5.10
2018-08-28T07:07:51.294Z,5.72
2018-08-28T07:10:20.285Z,5.50
2018-08-28T07:12:48.879Z,5.55
2018-08-28T07:15:18.105Z,6.15
2018-08-28T07:17:46.583Z,5.80
2018-08-28T07:20:15.720Z,5.67
2018-08-28T07:22:44.165Z,5.30
2018-08-28T07:25:12.966Z,4.72
2018-08-28T07:27:41.421Z,5.20
2018-08-28T07:30:09.902Z,5.92
2018-08-28T07:32:38.843Z,5.70
2018-08-28T07:35:07.882Z,6.45
2018-08-28T07:37:37.019Z,6.12
2018-08-28T07:40:05.770Z,5.78
2018-08-28T07:42:34.207Z,5.30
2018-08-28T07:45:03.008Z,7.12
2018-08-28T07:47:31.792Z,5.50
2018-08-28T07:50:00.564Z,4.92
2018-08-28T07:52:29.340Z,4.47
2018-08-28T07:54:58.164Z,4.83
2018-08-28T07:57:27.054Z,4.85
2018-08-28T07:59:55.516Z,4.17
2018-08-28T08:02:24.327Z,4.80
2018-08-28T08:04:53.575Z,5.35
2018-08-28T08:07:22.019Z,4.50
2018-08-28T08:09:50.484Z,4.85
2018-08-28T08:12:19.272Z,5.40
2018-08-28T08:14:48.043Z,4.72
2018-08-28T08:17:16.813Z,5.55
2018-08-28T08:19:45.301Z,5.75
2018-08-28T08:22:14.298Z,5.50
2018-08-28T08:24:43.633Z,5.60
2018-08-28T08:27:12.474Z,6.75
2018-08-28T08:29:40.931Z,5.85
2018-08-28T08:32:09.388Z,5.75
2018-08-28T08:34:38.370Z,6.00
2018-08-28T08:37:07.179Z,6.62
2018-08-28T08:39:36.122Z,6.45
2018-08-28T08:42:04.651Z,6.22
2018-08-28T08:44:33.921Z,6.00
2018-08-28T08:47:03.987Z,6.10
2018-08-28T08:49:32.755Z,6.53
2018-08-28T08:52:01.545Z,6.75
2018-08-28T08:54:29.980Z,6.90
2018-08-28T08:56:58.750Z,5.78
2018-08-28T08:59:27.517Z,5.67
2018-08-28T09:01:55.955Z,6.40
2018-08-28T09:04:24.699Z,5.15
2018-08-28T09:06:53.851Z,5.83
2018-08-28T09:09:22.459Z,6.28
2018-08-28T09:11:50.958Z,6.58
2018-08-28T09:14:19.390Z,4.70
2018-08-28T09:16:47.899Z,5.20
2018-08-28T09:19:16.434Z,5.95
2018-08-28T09:21:45.009Z,6.40
2018-08-28T09:24:13.861Z,6.45
2018-08-28T09:26:42.313Z,6.08
2018-08-28T09:29:10.746Z,4.55
2018-08-28T09:31:39.647Z,6.55
2018-08-28T09:34:08.284Z,6.15
2018-08-28T09:36:36.745Z,6.15
2018-08-28T09:39:06.108Z,6.22
2018-08-28T09:41:35.534Z,4.78
2018-08-28T09:44:04.639Z,5.80
2018-08-28T09:46:33.433Z,5.33
2018-08-28T09:49:02.313Z,5.30
2018-08-28T09:51:31.762Z,5.95
2018-08-28T09:54:00.202Z,5.67
2018-08-28T09:56:29.191Z,5.05
2018-08-28T09:58:58.133Z,4.95
2018-08-28T10:01:32.451Z,5.85
2018-08-28T10:04:01.585Z,5.75
2018-08-28T10:06:30.018Z,5.78
2018-08-28T10:09:00.404Z,5.33
2018-08-28T10:11:29.608Z,6.28
2018-08-28T10:16:32.573Z,6.33
2018-08-28T10:19:01.581Z,5.58
2018-08-28T10:21:30.373Z,6.30
2018-08-28T10:23:59.762Z,5.00
2018-08-28T10:26:28.872Z,5.42
2018-08-28T10:33:46.924Z,5.85
2018-08-28T10:36:25.904Z,5.40
2018-08-28T10:38:54.697Z,5.40
2018-08-28T10:41:23.480Z,5.97
2018-08-28T10:43:52.601Z,5.08
2018-08-28T10:46:21.072Z,5.10
2018-08-28T10:48:50.344Z,5.62
2018-08-28T10:51:19.137Z,4.87
2018-08-28T10:53:47.928Z,5.50
2018-08-28T10:56:16.444Z,5.62
2018-08-28T10:58:44.645Z,5.10
2018-08-28T11:01:12.995Z,6.00
2018-08-28T11:03:41.673Z,5.87
2018-08-28T11:06:09.827Z,5.10
2018-08-28T11:08:38.136Z,5.60
2018-08-28T11:11:07.085Z,5.70
2018-08-28T11:13:35.588Z,5.67
2018-08-28T11:16:04.134Z,5.92
2018-08-28T11:18:32.789Z,6.73
2018-08-28T11:21:01.268Z,5.27
2018-08-28T11:23:29.783Z,5.53
2018-08-28T11:25:58.305Z,5.40
2018-08-28T11:28:26.813Z,5.43
2018-08-28T11:30:54.985Z,5.57
2018-08-28T11:33:23.141Z,6.37
2018-08-28T11:35:51.695Z,6.70
2018-08-28T11:38:20.374Z,6.17
2018-08-28T11:40:50.013Z,6.37
2018-08-28T11:43:18.181Z,6.77
2018-08-28T11:45:47.039Z,5.90
2018-08-28T11:48:15.230Z,6.30
2018-08-28T11:50:44.033Z,6.93
2018-08-28T11:53:12.604Z,5.47
2018-08-28T11:55:41.542Z,6.27
2018-08-28T11:58:09.729Z,5.97
2018-08-28T12:00:37.927Z,6.07
2018-08-28T12:03:06.092Z,6.10
2018-08-28T12:05:35.224Z,7.10
2018-08-28T12:08:04.841Z,6.20
2018-08-28T12:10:33.359Z,6.30
2018-08-28T12:13:01.613Z,6.80
2018-08-28T12:15:30.249Z,7.07
2018-08-28T12:17:59.443Z,6.37
2018-08-28T12:20:28.034Z,6.90
2018-08-28T12:22:56.319Z,6.43
2018-08-28T12:25:25.029Z,7.70
2018-08-28T12:27:53.884Z,6.20
2018-08-28T12:30:22.455Z,6.60
2018-08-28T12:32:51.230Z,7.10
2018-08-28T12:35:20.108Z,7.93
2018-08-28T12:37:48.276Z,6.97
2018-08-28T12:40:16.775Z,7.80
2018-08-28T12:42:45.306Z,6.80
2018-08-28T12:45:13.825Z,7.83
2018-08-28T12:47:42.961Z,6.97
2018-08-28T12:50:11.830Z,7.17
2018-08-28T12:52:42.646Z,6.80
2018-08-28T12:55:11.540Z,7.20
2018-08-28T12:57:39.882Z,6.87
2018-08-28T13:00:09.082Z,7.40
2018-08-28T13:02:37.785Z,7.10
2018-08-28T13:05:06.757Z,6.60
2018-08-28T13:07:35.026Z,7.57
2018-08-28T13:10:03.728Z,7.50
2018-08-28T13:12:31.894Z,6.40
2018-08-28T13:15:02.920Z,7.30
2018-08-28T13:17:31.101Z,6.80
2018-08-28T13:19:59.310Z,6.90
2018-08-28T13:22:27.847Z,6.87
2018-08-28T13:24:56.464Z,6.87
2018-08-28T13:27:25.297Z,6.83
2018-08-28T13:29:53.818Z,7.20
2018-08-28T13:32:22.014Z,7.47
2018-08-28T13:34:50.710Z,7.60
2018-08-28T13:37:19.850Z,7.90
2018-08-28T13:39:48.045Z,8.63
2018-08-28T13:42:16.537Z,7.70
2018-08-28T13:44:44.713Z,8.00
2018-08-28T13:47:13.990Z,7.80
2018-08-28T13:49:42.578Z,7.50
2018-08-28T13:52:11.738Z,7.30
2018-08-28T13:54:40.956Z,7.57
2018-08-28T13:57:10.115Z,8.50
2018-08-28T13:59:38.288Z,8.40
2018-08-28T14:02:06.595Z,8.37
2018-08-28T14:04:34.772Z,8.03
2018-08-28T14:07:03.294Z,7.80
2018-08-28T14:09:31.497Z,8.43
2018-08-28T14:11:59.658Z,8.37
2018-08-28T14:14:28.173Z,6.77
2018-08-28T14:16:58.763Z,8.13
2018-08-28T14:19:27.615Z,7.53
2018-08-28T14:21:55.974Z,8.23
2018-08-28T14:24:24.153Z,7.77
2018-08-28T14:26:52.891Z,8.13
2018-08-28T14:29:21.861Z,7.20
2018-08-28T14:31:50.772Z,6.80
2018-08-28T14:34:19.153Z,6.50
2018-08-28T14:36:48.137Z,7.27
2018-08-28T14:39:16.993Z,7.20
2018-08-28T14:41:45.497Z,7.90
2018-08-28T14:44:13.717Z,7.87
2018-08-28T14:46:42.621Z,8.70
2018-08-28T14:49:10.826Z,6.33
2018-08-28T14:51:39.000Z,7.03
2018-08-28T14:54:08.014Z,7.43
2018-08-28T14:56:36.234Z,7.40
2018-08-28T14:59:04.936Z,7.00
2018-08-28T15:01:33.635Z,7.53
2018-08-28T15:04:01.867Z,6.30
2018-08-28T15:06:30.972Z,7.90
2018-08-28T15:08:59.830Z,7.63
2018-08-28T15:11:28.016Z,6.80
2018-08-28T15:13:56.245Z,7.00
2018-08-28T15:16:24.475Z,8.30
2018-08-28T15:18:59.684Z,7.90
2018-08-28T15:21:29.217Z,7.43
2018-08-28T15:23:57.909Z,7.80
2018-08-28T15:26:27.068Z,8.13
2018-08-28T15:28:56.181Z,7.97
2018-08-28T15:31:25.013Z,7.50
2018-08-28T15:33:53.228Z,7.70
2018-08-28T15:36:21.496Z,8.43
2018-08-28T15:38:50.184Z,7.77
2018-08-28T15:41:19.248Z,7.37
2018-08-28T15:43:48.434Z,7.37
2018-08-28T15:46:17.342Z,7.30
2018-08-28T15:48:45.859Z,7.27
2018-08-28T15:51:14.126Z,6.83
2018-08-28T15:53:42.752Z,8.10
2018-08-28T15:56:11.253Z,7.77
2018-08-28T15:58:39.441Z,8.27
2018-08-28T16:01:07.649Z,7.77
2018-08-28T16:03:36.450Z,8.23
2018-08-28T16:06:05.371Z,7.60
2018-08-28T16:08:33.584Z,7.20
2018-08-28T16:11:02.424Z,8.20
2018-08-28T16:13:30.613Z,7.83
2018-08-28T16:15:59.158Z,7.63
2018-08-28T16:18:27.984Z,7.33
2018-08-28T16:20:56.522Z,8.67
2018-08-28T16:23:30.240Z,8.07
2018-08-28T16:25:59.349Z,12.13
2018-08-28T16:28:28.696Z,45.30
2018-08-28T16:30:57.404Z,10.20
2018-08-28T16:33:26.511Z,13.57
2018-08-28T16:35:55.172Z,20.03
2018-08-28T16:38:23.486Z,12.83
2018-08-28T16:40:51.667Z,10.80
2018-08-28T16:43:19.882Z,11.83
2018-08-28T16:45:48.382Z,11.27
2018-08-28T16:48:16.886Z,8.40
2018-08-28T16:50:45.954Z,7.63
2018-08-28T16:53:14.476Z,8.27
2018-08-28T16:55:43.394Z,7.00
2018-08-28T16:58:12.535Z,7.50
2018-08-28T17:00:44.854Z,8.07
2018-08-28T17:03:14.605Z,7.80
2018-08-28T17:05:42.797Z,7.90
2018-08-28T17:08:11.881Z,7.30
2018-08-28T17:10:40.962Z,8.97
2018-08-28T17:13:09.154Z,7.70
2018-08-28T17:15:41.025Z,7.60
2018-08-28T17:18:10.325Z,7.20
2018-08-28T17:20:39.192Z,7.70
2018-08-28T17:23:08.637Z,7.90
2018-08-28T17:25:37.489Z,8.27
2018-08-28T17:28:06.398Z,8.37
2018-08-28T17:30:35.810Z,7.87
2018-08-28T17:33:04.684Z,7.10
2018-08-28T17:35:33.395Z,7.00
2018-08-28T17:38:01.590Z,8.23
2018-08-28T17:40:30.411Z,8.83
2018-08-28T17:42:59.635Z,8.30
2018-08-28T17:45:28.736Z,8.40
2018-08-28T17:47:57.546Z,8.87
2018-08-28T17:50:26.986Z,8.50
2018-08-28T17:52:55.598Z,9.10
2018-08-28T17:55:26.104Z,9.00
2018-08-28T17:57:57.445Z,8.60
2018-08-28T18:00:25.984Z,8.07
2018-08-28T18:02:55.151Z,8.90
2018-08-28T18:05:23.699Z,9.23
2018-08-28T18:08:00.008Z,8.90
2018-08-28T18:10:29.850Z,8.33
2018-08-28T18:13:01.343Z,8.80
2018-08-28T18:15:29.915Z,7.70
2018-08-28T18:17:58.140Z,8.00
2018-08-28T18:20:27.998Z,8.30
2018-08-28T18:22:57.964Z,9.78
2018-08-28T18:25:28.197Z,9.13
2018-08-28T18:27:57.661Z,9.43
2018-08-28T18:30:27.054Z,9.10
2018-08-28T18:32:55.607Z,8.00
2018-08-28T18:35:25.047Z,9.15
2018-08-28T18:37:53.548Z,8.93
2018-08-28T18:40:24.160Z,7.85
2018-08-28T18:42:52.651Z,8.50
2018-08-28T18:45:22.785Z,8.93
2018-08-28T18:47:52.585Z,9.43
2018-08-28T18:50:22.037Z,9.55
2018-08-28T18:52:53.669Z,10.53
2018-08-28T18:55:22.790Z,8.78
2018-08-28T18:57:51.270Z,8.75
2018-08-28T19:00:20.611Z,8.25
2018-08-28T19:05:49.605Z,9.20
2018-08-28T19:08:18.526Z,8.95
2018-08-28T19:10:48.245Z,9.60
2018-08-28T19:13:17.116Z,8.60
2018-08-28T19:15:49.194Z,9.33
2018-08-28T19:18:17.794Z,8.18
2018-08-28T19:20:46.612Z,8.43
2018-08-28T19:23:15.067Z,9.28
2018-08-28T19:25:44.915Z,8.70
2018-08-28T19:28:13.739Z,9.23
2018-08-28T19:30:42.224Z,8.73
2018-08-28T19:33:11.098Z,8.85
2018-08-28T19:35:40.231Z,8.28
2018-08-28T19:38:10.109Z,9.20
2018-08-28T19:40:38.927Z,9.38
2018-08-28T19:43:07.411Z,8.55
2018-08-28T19:45:36.334Z,8.78
2018-08-28T19:48:05.897Z,9.53
2018-08-28T19:50:34.360Z,8.20
2018-08-28T19:53:02.882Z,9.25
2018-08-28T19:55:31.688Z,9.08
2018-08-28T19:58:00.173Z,8.38
2018-08-28T20:00:28.984Z,8.85
2018-08-28T20:02:58.854Z,9.88
2018-08-28T20:05:28.997Z,9.03
2018-08-28T20:08:02.279Z,10.30
2018-08-28T20:10:31.939Z,10.38
2018-08-28T20:13:02.370Z,9.20
2018-08-28T20:15:33.090Z,9.78
2018-08-28T20:18:01.649Z,9.13
2018-08-28T20:20:44.846Z,8.50
2018-08-28T20:23:13.553Z,10.58
2018-08-28T20:25:42.044Z,9.93
2018-08-28T20:28:11.164Z,10.25
2018-08-28T20:30:40.632Z,9.18
2018-08-28T20:33:09.149Z,9.90
2018-08-28T20:35:39.900Z,9.88
2018-08-28T20:38:08.452Z,9.13
2018-08-28T20:40:37.604Z,10.15
2018-08-28T20:43:06.455Z,11.05
2018-08-28T20:45:34.994Z,10.35
2018-08-28T20:48:03.793Z,9.40
2018-08-28T20:50:32.848Z,10.95
2018-08-28T20:53:03.989Z,10.55
2018-08-28T20:55:32.808Z,10.40
2018-08-28T20:58:01.334Z,9.80
2018-08-28T21:00:29.983Z,10.98
2018-08-28T21:02:58.547Z,10.32
2018-08-28T21:05:29.289Z,10.25
2018-08-28T21:07:59.756Z,9.20
2018-08-28T21:10:40.337Z,9.23
2018-08-28T21:13:08.883Z,9.75
2018-08-28T21:15:37.536Z,11.12
2018-08-28T21:18:07.286Z,9.95
2018-08-28T21:20:37.374Z,8.80
2018-08-28T21:23:06.251Z,9.60
2018-08-28T21:25:35.184Z,10.45
2018-08-28T21:28:04.616Z,9.75
2018-08-28T21:30:33.089Z,10.85
2018-08-28T21:33:01.630Z,9.70
2018-08-28T21:35:31.187Z,10.85
2018-08-28T21:38:00.954Z,9.50
2018-08-28T21:40:31.049Z,9.50
2018-08-28T21:43:01.505Z,9.40
2018-08-28T21:45:31.033Z,10.45
2018-08-28T21:48:08.272Z,11.12
2018-08-28T21:50:37.522Z,10.35
2018-08-28T21:53:05.965Z,11.15
2018-08-28T21:55:35.660Z,10.15
2018-08-28T21:58:05.474Z,11.00
2018-08-28T22:00:41.805Z,10.88
2018-08-28T22:03:13.262Z,11.10
2018-08-28T22:05:42.784Z,10.23
2018-08-28T22:08:13.378Z,10.85
2018-08-28T22:10:43.923Z,10.85
2018-08-28T22:13:12.559Z,9.88
2018-08-28T22:15:41.571Z,10.60
2018-08-28T22:18:10.309Z,10.85
2018-08-28T22:20:45.081Z,10.50
2018-08-28T22:23:14.301Z,11.03
2018-08-28T22:25:45.765Z,10.75
2018-08-28T22:28:15.387Z,12.07
2018-08-28T22:30:44.501Z,9.60
2018-08-28T22:33:13.348Z,10.35
2018-08-28T22:35:42.890Z,9.63
2018-08-28T22:38:11.855Z,11.10
2018-08-28T22:40:41.108Z,10.85
2018-08-28T22:43:09.967Z,10.88
2018-08-28T22:45:38.999Z,10.65
2018-08-28T22:48:07.573Z,8.95
2018-08-28T22:50:36.053Z,12.55
2018-08-28T22:53:04.520Z,10.03
2018-08-28T22:55:32.993Z,10.13
2018-08-28T22:58:01.493Z,11.30
2018-08-28T23:00:30.314Z,10.82
2018-08-28T23:02:58.785Z,10.75
2018-08-28T23:05:31.230Z,9.80
2018-08-28T23:08:00.044Z,10.88
2018-08-28T23:10:28.534Z,11.90
2018-08-28T23:12:57.318Z,10.15
2018-08-28T23:15:25.797Z,10.43
2018-08-28T23:17:54.984Z,11.33
2018-08-28T23:20:23.973Z,10.15
2018-08-28T23:22:52.439Z,10.70
2018-08-28T23:25:21.922Z,10.20
2018-08-28T23:27:50.790Z,10.40
2018-08-28T23:30:19.288Z,10.28
2018-08-28T23:32:48.055Z,10.98
2018-08-28T23:35:17.241Z,11.50
2018-08-28T23:37:46.101Z,11.00
2018-08-28T23:40:15.241Z,10.53
2018-08-28T23:42:44.071Z,10.20
2018-08-28T23:45:12.537Z,10.85
2018-08-28T23:47:41.289Z,10.90
2018-08-28T23:50:09.789Z,10.60
2018-08-28T23:52:39.077Z,10.68
2018-08-28T23:55:07.556Z,10.78
2018-08-28T23:57:36.357Z,10.20
